sensor_id;sensor_type;location;lat;lon;timestamp;P1;durP1;ratioP1;P2;durP2;ratioP2
25982;SDS011;13773;48.868;10.730;2023-02-17T00:01:08;13.10;;;8.10;;
25982;SDS011;13773;48.868;10.730;2023-02-17T00:03:38;9.37;;;6.87;;
25982;SDS011;13773;48.868;10.730;2023-02-17T00:06:05;12.20;;;7.53;;
25982;SDS011;13773;48.868;10.730;2023-02-17T00:08:35;10.30;;;7.47;;
25982;SDS011;13773;48.868;10.730;2023-02-17T00:11:01;10.73;;;7.07;;
25982;SDS011;13773;48.868;10.730;2023-02-17T00:13:27;11.90;;;7.27;;
25982;SDS011;13773;48.868;10.730;2023-02-17T00:15:53;9.80;;;6.63;;
25982;SDS011;13773;48.868;10.730;2023-02-17T00:18:19;11.63;;;6.97;;
25982;SDS011;13773;48.868;10.730;2023-02-17T00:20:45;9.93;;;6.47;;
25982;SDS011;13773;48.868;10.730;2023-02-17T00:23:10;7.80;;;6.50;;
25982;SDS011;13773;48.868;10.730;2023-02-17T00:25:36;8.60;;;6.87;;
25982;SDS011;13773;48.868;10.730;2023-02-17T00:28:02;11.07;;;7.77;;
25982;SDS011;13773;48.868;10.730;2023-02-17T00:30:28;11.40;;;7.30;;
25982;SDS011;13773;48.868;10.730;2023-02-17T00:32:54;11.07;;;7.10;;
25982;SDS011;13773;48.868;10.730;2023-02-17T00:35:20;9.23;;;6.57;;
25982;SDS011;13773;48.868;10.730;2023-02-17T00:37:46;9.80;;;7.00;;
25982;SDS011;13773;48.868;10.730;2023-02-17T00:40:12;11.27;;;6.90;;
25982;SDS011;13773;48.868;10.730;2023-02-17T00:42:38;10.40;;;6.60;;
25982;SDS011;13773;48.868;10.730;2023-02-17T00:45:04;11.60;;;6.77;;
25982;SDS011;13773;48.868;10.730;2023-02-17T00:47:30;9.57;;;6.43;;
25982;SDS011;13773;48.868;10.730;2023-02-17T00:49:55;9.17;;;6.80;;
25982;SDS011;13773;48.868;10.730;2023-02-17T00:52:21;10.20;;;7.03;;
25982;SDS011;13773;48.868;10.730;2023-02-17T00:54:47;7.93;;;6.83;;
25982;SDS011;13773;48.868;10.730;2023-02-17T00:57:12;12.70;;;7.70;;
25982;SDS011;13773;48.868;10.730;2023-02-17T00:59:38;13.23;;;8.67;;
25982;SDS011;13773;48.868;10.730;2023-02-17T01:02:04;10.57;;;8.07;;
25982;SDS011;13773;48.868;10.730;2023-02-17T01:04:30;12.07;;;7.50;;
25982;SDS011;13773;48.868;10.730;2023-02-17T01:06:55;12.73;;;8.80;;
25982;SDS011;13773;48.868;10.730;2023-02-17T01:09:21;11.30;;;7.47;;
25982;SDS011;13773;48.868;10.730;2023-02-17T01:11:47;10.17;;;8.43;;
25982;SDS011;13773;48.868;10.730;2023-02-17T01:14:12;8.90;;;7.53;;
25982;SDS011;13773;48.868;10.730;2023-02-17T01:16:39;8.67;;;7.17;;
25982;SDS011;13773;48.868;10.730;2023-02-17T01:19:10;13.07;;;7.60;;
25982;SDS011;13773;48.868;10.730;2023-02-17T01:21:37;9.73;;;7.00;;
25982;SDS011;13773;48.868;10.730;2023-02-17T01:24:04;9.87;;;7.63;;
25982;SDS011;13773;48.868;10.730;2023-02-17T01:26:32;9.80;;;7.57;;
25982;SDS011;13773;48.868;10.730;2023-02-17T01:28:59;12.30;;;8.20;;
25982;SDS011;13773;48.868;10.730;2023-02-17T01:31:25;10.60;;;7.80;;
25982;SDS011;13773;48.868;10.730;2023-02-17T01:33:57;10.63;;;7.27;;
25982;SDS011;13773;48.868;10.730;2023-02-17T01:36:24;11.37;;;7.47;;
25982;SDS011;13773;48.868;10.730;2023-02-17T01:38:51;11.57;;;7.43;;
25982;SDS011;13773;48.868;10.730;2023-02-17T01:41:17;9.47;;;7.57;;
25982;SDS011;13773;48.868;10.730;2023-02-17T01:44:04;10.93;;;7.77;;
25982;SDS011;13773;48.868;10.730;2023-02-17T01:46:32;9.40;;;7.00;;
25982;SDS011;13773;48.868;10.730;2023-02-17T01:48:58;10.23;;;7.37;;
25982;SDS011;13773;48.868;10.730;2023-02-17T01:51:26;9.70;;;7.27;;
25982;SDS011;13773;48.868;10.730;2023-02-17T01:54:41;10.33;;;7.23;;
25982;SDS011;13773;48.868;10.730;2023-02-17T01:56:44;8.27;;;6.77;;
25982;SDS011;13773;48.868;10.730;2023-02-17T01:59:16;11.50;;;7.27;;
25982;SDS011;13773;48.868;10.730;2023-02-17T02:01:45;9.00;;;6.93;;
25982;SDS011;13773;48.868;10.730;2023-02-17T02:04:11;10.13;;;7.70;;
25982;SDS011;13773;48.868;10.730;2023-02-17T02:06:41;10.60;;;7.63;;
25982;SDS011;13773;48.868;10.730;2023-02-17T02:09:09;12.73;;;7.43;;
25982;SDS011;13773;48.868;10.730;2023-02-17T02:11:40;11.50;;;7.23;;
25982;SDS011;13773;48.868;10.730;2023-02-17T02:14:06;9.27;;;6.80;;
25982;SDS011;13773;48.868;10.730;2023-02-17T02:27:06;8.50;;;6.40;;
25982;SDS011;13773;48.868;10.730;2023-02-17T02:30:01;8.93;;;6.47;;
25982;SDS011;13773;48.868;10.730;2023-02-17T02:40:49;8.17;;;5.03;;
25982;SDS011;13773;48.868;10.730;2023-02-17T02:43:20;9.57;;;6.40;;
25982;SDS011;13773;48.868;10.730;2023-02-17T02:45:48;8.63;;;6.00;;
25982;SDS011;13773;48.868;10.730;2023-02-17T02:48:13;9.33;;;6.20;;
25982;SDS011;13773;48.868;10.730;2023-02-17T03:02:04;10.23;;;6.90;;
25982;SDS011;13773;48.868;10.730;2023-02-17T03:04:33;9.63;;;6.70;;
25982;SDS011;13773;48.868;10.730;2023-02-17T03:07:16;9.70;;;7.60;;
25982;SDS011;13773;48.868;10.730;2023-02-17T03:09:56;11.33;;;7.43;;
25982;SDS011;13773;48.868;10.730;2023-02-17T03:12:23;13.57;;;7.70;;
25982;SDS011;13773;48.868;10.730;2023-02-17T03:14:53;9.67;;;7.33;;
25982;SDS011;13773;48.868;10.730;2023-02-17T03:17:23;9.70;;;7.40;;
25982;SDS011;13773;48.868;10.730;2023-02-17T03:19:49;10.33;;;7.63;;
25982;SDS011;13773;48.868;10.730;2023-02-17T03:22:16;10.53;;;7.50;;
25982;SDS011;13773;48.868;10.730;2023-02-17T03:24:46;11.70;;;7.70;;
25982;SDS011;13773;48.868;10.730;2023-02-17T03:27:12;9.87;;;7.57;;
25982;SDS011;13773;48.868;10.730;2023-02-17T03:29:38;8.60;;;7.27;;
25982;SDS011;13773;48.868;10.730;2023-02-17T03:32:04;10.00;;;7.20;;
25982;SDS011;13773;48.868;10.730;2023-02-17T03:34:31;9.27;;;7.53;;
25982;SDS011;13773;48.868;10.730;2023-02-17T03:36:56;10.00;;;7.20;;
25982;SDS011;13773;48.868;10.730;2023-02-17T03:39:22;10.90;;;7.50;;
25982;SDS011;13773;48.868;10.730;2023-02-17T03:41:48;10.23;;;6.67;;
25982;SDS011;13773;48.868;10.730;2023-02-17T03:44:16;9.10;;;7.90;;
25982;SDS011;13773;48.868;10.730;2023-02-17T03:46:42;13.90;;;7.97;;
25982;SDS011;13773;48.868;10.730;2023-02-17T03:49:08;9.57;;;6.43;;
25982;SDS011;13773;48.868;10.730;2023-02-17T03:51:34;11.53;;;7.20;;
25982;SDS011;13773;48.868;10.730;2023-02-17T03:53:59;11.13;;;7.10;;
25982;SDS011;13773;48.868;10.730;2023-02-17T03:56:25;10.83;;;7.43;;
25982;SDS011;13773;48.868;10.730;2023-02-17T03:58:51;9.97;;;7.03;;
25982;SDS011;13773;48.868;10.730;2023-02-17T04:01:17;9.50;;;7.67;;
25982;SDS011;13773;48.868;10.730;2023-02-17T04:03:42;10.87;;;7.50;;
25982;SDS011;13773;48.868;10.730;2023-02-17T04:06:08;10.77;;;7.83;;
25982;SDS011;13773;48.868;10.730;2023-02-17T04:08:35;13.77;;;7.80;;
25982;SDS011;13773;48.868;10.730;2023-02-17T04:11:02;12.37;;;7.87;;
25982;SDS011;13773;48.868;10.730;2023-02-17T04:13:28;11.93;;;7.60;;
25982;SDS011;13773;48.868;10.730;2023-02-17T04:15:54;11.20;;;8.23;;
25982;SDS011;13773;48.868;10.730;2023-02-17T04:18:20;11.67;;;7.77;;
25982;SDS011;13773;48.868;10.730;2023-02-17T04:20:47;10.53;;;7.70;;
25982;SDS011;13773;48.868;10.730;2023-02-17T04:23:14;12.17;;;7.97;;
25982;SDS011;13773;48.868;10.730;2023-02-17T04:25:41;12.50;;;7.43;;
25982;SDS011;13773;48.868;10.730;2023-02-17T04:28:07;10.40;;;7.83;;
25982;SDS011;13773;48.868;10.730;2023-02-17T04:30:33;9.70;;;7.20;;
25982;SDS011;13773;48.868;10.730;2023-02-17T04:32:58;10.50;;;7.60;;
25982;SDS011;13773;48.868;10.730;2023-02-17T04:35:25;11.50;;;7.70;;
25982;SDS011;13773;48.868;10.730;2023-02-17T04:37:51;11.63;;;7.43;;
25982;SDS011;13773;48.868;10.730;2023-02-17T04:40:17;12.30;;;8.00;;
25982;SDS011;13773;48.868;10.730;2023-02-17T04:42:43;11.07;;;7.87;;
25982;SDS011;13773;48.868;10.730;2023-02-17T04:45:09;11.23;;;7.50;;
25982;SDS011;13773;48.868;10.730;2023-02-17T04:47:35;12.40;;;8.27;;
25982;SDS011;13773;48.868;10.730;2023-02-17T04:50:01;10.23;;;7.07;;
25982;SDS011;13773;48.868;10.730;2023-02-17T04:52:28;12.83;;;8.03;;
25982;SDS011;13773;48.868;10.730;2023-02-17T04:54:54;11.33;;;8.13;;
25982;SDS011;13773;48.868;10.730;2023-02-17T04:57:20;13.03;;;8.47;;
25982;SDS011;13773;48.868;10.730;2023-02-17T04:59:45;10.57;;;8.30;;
25982;SDS011;13773;48.868;10.730;2023-02-17T05:02:11;11.27;;;7.50;;
25982;SDS011;13773;48.868;10.730;2023-02-17T05:04:36;12.67;;;7.93;;
25982;SDS011;13773;48.868;10.730;2023-02-17T05:07:02;12.67;;;8.63;;
25982;SDS011;13773;48.868;10.730;2023-02-17T05:09:28;12.47;;;8.00;;
25982;SDS011;13773;48.868;10.730;2023-02-17T05:11:53;13.10;;;7.97;;
25982;SDS011;13773;48.868;10.730;2023-02-17T05:14:19;11.70;;;8.10;;
25982;SDS011;13773;48.868;10.730;2023-02-17T05:16:45;11.33;;;8.00;;
25982;SDS011;13773;48.868;10.730;2023-02-17T05:19:10;11.30;;;8.20;;
25982;SDS011;13773;48.868;10.730;2023-02-17T05:21:36;13.10;;;8.40;;
25982;SDS011;13773;48.868;10.730;2023-02-17T05:24:02;12.17;;;8.30;;
25982;SDS011;13773;48.868;10.730;2023-02-17T05:26:28;11.00;;;7.70;;
25982;SDS011;13773;48.868;10.730;2023-02-17T05:28:54;12.50;;;8.17;;
25982;SDS011;13773;48.868;10.730;2023-02-17T05:31:20;12.23;;;8.03;;
25982;SDS011;13773;48.868;10.730;2023-02-17T05:33:46;13.37;;;8.63;;
25982;SDS011;13773;48.868;10.730;2023-02-17T05:36:11;11.30;;;8.40;;
25982;SDS011;13773;48.868;10.730;2023-02-17T05:38:37;14.03;;;9.10;;
25982;SDS011;13773;48.868;10.730;2023-02-17T05:41:04;12.63;;;8.70;;
25982;SDS011;13773;48.868;10.730;2023-02-17T05:43:30;15.07;;;8.37;;
25982;SDS011;13773;48.868;10.730;2023-02-17T05:46:00;12.70;;;8.67;;
25982;SDS011;13773;48.868;10.730;2023-02-17T05:48:29;12.10;;;8.77;;
25982;SDS011;13773;48.868;10.730;2023-02-17T05:50:55;13.83;;;9.63;;
25982;SDS011;13773;48.868;10.730;2023-02-17T05:53:21;14.83;;;9.53;;
25982;SDS011;13773;48.868;10.730;2023-02-17T05:55:49;13.53;;;9.13;;
25982;SDS011;13773;48.868;10.730;2023-02-17T05:58:15;12.33;;;8.93;;
25982;SDS011;13773;48.868;10.730;2023-02-17T06:00:40;14.40;;;9.27;;
25982;SDS011;13773;48.868;10.730;2023-02-17T06:03:06;11.97;;;8.37;;
25982;SDS011;13773;48.868;10.730;2023-02-17T06:05:32;10.80;;;8.37;;
25982;SDS011;13773;48.868;10.730;2023-02-17T06:07:57;14.23;;;9.17;;
25982;SDS011;13773;48.868;10.730;2023-02-17T06:10:23;11.70;;;8.17;;
25982;SDS011;13773;48.868;10.730;2023-02-17T06:12:49;11.80;;;7.57;;
25982;SDS011;13773;48.868;10.730;2023-02-17T06:15:14;9.43;;;7.73;;
25982;SDS011;13773;48.868;10.730;2023-02-17T06:17:40;13.10;;;7.77;;
25982;SDS011;13773;48.868;10.730;2023-02-17T06:20:07;13.43;;;8.30;;
25982;SDS011;13773;48.868;10.730;2023-02-17T06:22:33;12.87;;;8.20;;
25982;SDS011;13773;48.868;10.730;2023-02-17T06:24:58;11.23;;;8.13;;
25982;SDS011;13773;48.868;10.730;2023-02-17T06:27:24;14.37;;;8.50;;
25982;SDS011;13773;48.868;10.730;2023-02-17T06:29:50;14.10;;;8.63;;
25982;SDS011;13773;48.868;10.730;2023-02-17T06:32:16;10.60;;;7.57;;
25982;SDS011;13773;48.868;10.730;2023-02-17T06:34:41;10.53;;;7.60;;
25982;SDS011;13773;48.868;10.730;2023-02-17T06:37:07;10.70;;;7.70;;
25982;SDS011;13773;48.868;10.730;2023-02-17T06:39:33;11.13;;;7.50;;
25982;SDS011;13773;48.868;10.730;2023-02-17T06:41:58;11.53;;;8.37;;
25982;SDS011;13773;48.868;10.730;2023-02-17T06:44:24;13.10;;;8.80;;
25982;SDS011;13773;48.868;10.730;2023-02-17T06:46:50;13.33;;;8.53;;
25982;SDS011;13773;48.868;10.730;2023-02-17T06:49:16;11.83;;;8.40;;
25982;SDS011;13773;48.868;10.730;2023-02-17T06:51:42;22.10;;;8.27;;
25982;SDS011;13773;48.868;10.730;2023-02-17T06:54:07;11.77;;;8.00;;
25982;SDS011;13773;48.868;10.730;2023-02-17T06:56:33;13.33;;;8.97;;
25982;SDS011;13773;48.868;10.730;2023-02-17T06:59:00;9.63;;;7.53;;
25982;SDS011;13773;48.868;10.730;2023-02-17T07:01:26;11.67;;;8.30;;
25982;SDS011;13773;48.868;10.730;2023-02-17T07:03:52;12.23;;;9.80;;
25982;SDS011;13773;48.868;10.730;2023-02-17T07:06:18;12.23;;;8.80;;
25982;SDS011;13773;48.868;10.730;2023-02-17T07:08:45;10.83;;;8.33;;
25982;SDS011;13773;48.868;10.730;2023-02-17T07:11:11;10.97;;;7.67;;
25982;SDS011;13773;48.868;10.730;2023-02-17T07:13:38;11.17;;;8.20;;
25982;SDS011;13773;48.868;10.730;2023-02-17T07:16:05;13.00;;;7.70;;
25982;SDS011;13773;48.868;10.730;2023-02-17T07:18:32;12.30;;;8.27;;
25982;SDS011;13773;48.868;10.730;2023-02-17T07:20:57;10.23;;;7.53;;
25982;SDS011;13773;48.868;10.730;2023-02-17T07:23:23;10.87;;;7.63;;
25982;SDS011;13773;48.868;10.730;2023-02-17T07:25:49;12.37;;;7.87;;
25982;SDS011;13773;48.868;10.730;2023-02-17T07:28:15;13.43;;;7.87;;
25982;SDS011;13773;48.868;10.730;2023-02-17T07:30:41;11.00;;;7.00;;
25982;SDS011;13773;48.868;10.730;2023-02-17T07:33:08;9.00;;;6.73;;
25982;SDS011;13773;48.868;10.730;2023-02-17T07:35:34;10.57;;;7.90;;
25982;SDS011;13773;48.868;10.730;2023-02-17T07:38:04;8.47;;;6.53;;
25982;SDS011;13773;48.868;10.730;2023-02-17T07:40:30;8.70;;;6.60;;
25982;SDS011;13773;48.868;10.730;2023-02-17T07:42:56;10.20;;;7.27;;
25982;SDS011;13773;48.868;10.730;2023-02-17T07:45:22;8.33;;;6.33;;
25982;SDS011;13773;48.868;10.730;2023-02-17T07:47:48;9.60;;;6.20;;
25982;SDS011;13773;48.868;10.730;2023-02-17T07:50:13;9.47;;;6.40;;
25982;SDS011;13773;48.868;10.730;2023-02-17T07:52:39;9.07;;;5.50;;
25982;SDS011;13773;48.868;10.730;2023-02-17T07:55:05;7.77;;;6.30;;
25982;SDS011;13773;48.868;10.730;2023-02-17T07:57:30;8.67;;;6.03;;
25982;SDS011;13773;48.868;10.730;2023-02-17T07:59:56;8.20;;;6.00;;
25982;SDS011;13773;48.868;10.730;2023-02-17T08:02:21;7.97;;;6.17;;
25982;SDS011;13773;48.868;10.730;2023-02-17T08:04:47;10.70;;;6.13;;
25982;SDS011;13773;48.868;10.730;2023-02-17T08:07:13;9.27;;;6.67;;
25982;SDS011;13773;48.868;10.730;2023-02-17T08:09:38;9.50;;;6.23;;
25982;SDS011;13773;48.868;10.730;2023-02-17T08:12:23;11.97;;;6.77;;
25982;SDS011;13773;48.868;10.730;2023-02-17T08:15:07;8.17;;;6.00;;
25982;SDS011;13773;48.868;10.730;2023-02-17T08:17:35;11.37;;;7.20;;
25982;SDS011;13773;48.868;10.730;2023-02-17T08:20:00;7.70;;;5.83;;
25982;SDS011;13773;48.868;10.730;2023-02-17T08:22:26;7.93;;;5.20;;
25982;SDS011;13773;48.868;10.730;2023-02-17T08:24:52;9.30;;;5.97;;
25982;SDS011;13773;48.868;10.730;2023-02-17T08:27:18;8.57;;;5.80;;
25982;SDS011;13773;48.868;10.730;2023-02-17T08:29:44;6.87;;;5.93;;
25982;SDS011;13773;48.868;10.730;2023-02-17T08:32:10;10.77;;;6.90;;
25982;SDS011;13773;48.868;10.730;2023-02-17T08:34:37;10.23;;;6.00;;
25982;SDS011;13773;48.868;10.730;2023-02-17T08:37:04;16.13;;;9.03;;
25982;SDS011;13773;48.868;10.730;2023-02-17T08:39:30;7.80;;;5.73;;
25982;SDS011;13773;48.868;10.730;2023-02-17T08:41:58;9.20;;;6.40;;
25982;SDS011;13773;48.868;10.730;2023-02-17T08:44:23;9.17;;;6.07;;
25982;SDS011;13773;48.868;10.730;2023-02-17T08:46:50;7.70;;;5.83;;
25982;SDS011;13773;48.868;10.730;2023-02-17T08:49:18;9.97;;;6.23;;
25982;SDS011;13773;48.868;10.730;2023-02-17T08:51:47;6.57;;;5.73;;
25982;SDS011;13773;48.868;10.730;2023-02-17T08:54:13;8.90;;;5.20;;
25982;SDS011;13773;48.868;10.730;2023-02-17T08:56:39;6.07;;;4.90;;
25982;SDS011;13773;48.868;10.730;2023-02-17T08:59:06;7.43;;;5.67;;
25982;SDS011;13773;48.868;10.730;2023-02-17T09:01:33;7.10;;;5.30;;
25982;SDS011;13773;48.868;10.730;2023-02-17T09:03:59;7.87;;;5.23;;
25982;SDS011;13773;48.868;10.730;2023-02-17T09:06:34;9.67;;;5.57;;
25982;SDS011;13773;48.868;10.730;2023-02-17T09:09:05;6.60;;;4.97;;
25982;SDS011;13773;48.868;10.730;2023-02-17T09:11:32;11.77;;;5.27;;
25982;SDS011;13773;48.868;10.730;2023-02-17T09:13:59;10.50;;;5.00;;
25982;SDS011;13773;48.868;10.730;2023-02-17T09:16:24;6.00;;;4.80;;
25982;SDS011;13773;48.868;10.730;2023-02-17T09:18:51;9.03;;;4.50;;
25982;SDS011;13773;48.868;10.730;2023-02-17T09:21:17;7.63;;;5.00;;
25982;SDS011;13773;48.868;10.730;2023-02-17T09:23:44;9.27;;;6.03;;
25982;SDS011;13773;48.868;10.730;2023-02-17T09:26:11;9.73;;;5.40;;
25982;SDS011;13773;48.868;10.730;2023-02-17T09:28:38;8.33;;;4.90;;
25982;SDS011;13773;48.868;10.730;2023-02-17T09:31:36;7.40;;;4.60;;
25982;SDS011;13773;48.868;10.730;2023-02-17T09:33:56;4.97;;;4.47;;
25982;SDS011;13773;48.868;10.730;2023-02-17T09:36:25;7.77;;;4.70;;
25982;SDS011;13773;48.868;10.730;2023-02-17T09:38:57;5.13;;;4.17;;
25982;SDS011;13773;48.868;10.730;2023-02-17T09:41:28;7.07;;;4.70;;
25982;SDS011;13773;48.868;10.730;2023-02-17T09:44:15;6.57;;;4.23;;
25982;SDS011;13773;48.868;10.730;2023-02-17T09:46:56;7.37;;;4.57;;
25982;SDS011;13773;48.868;10.730;2023-02-17T09:49:44;7.03;;;4.37;;
25982;SDS011;13773;48.868;10.730;2023-02-17T09:55:05;8.63;;;4.50;;
25982;SDS011;13773;48.868;10.730;2023-02-17T09:57:36;6.37;;;4.07;;
25982;SDS011;13773;48.868;10.730;2023-02-17T10:00:14;6.70;;;4.50;;
25982;SDS011;13773;48.868;10.730;2023-02-17T10:05:39;5.13;;;3.80;;
25982;SDS011;13773;48.868;10.730;2023-02-17T10:08:16;5.90;;;3.70;;
25982;SDS011;13773;48.868;10.730;2023-02-17T10:10:58;6.40;;;4.10;;
25982;SDS011;13773;48.868;10.730;2023-02-17T10:13:29;6.43;;;5.00;;
25982;SDS011;13773;48.868;10.730;2023-02-17T10:15:58;6.40;;;4.20;;
25982;SDS011;13773;48.868;10.730;2023-02-17T10:18:39;7.90;;;4.70;;
25982;SDS011;13773;48.868;10.730;2023-02-17T10:21:10;5.17;;;4.67;;
25982;SDS011;13773;48.868;10.730;2023-02-17T10:23:49;9.07;;;3.80;;
25982;SDS011;13773;48.868;10.730;2023-02-17T10:29:09;6.23;;;4.20;;
25982;SDS011;13773;48.868;10.730;2023-02-17T10:31:45;5.00;;;3.30;;
25982;SDS011;13773;48.868;10.730;2023-02-17T10:37:03;6.07;;;3.73;;
25982;SDS011;13773;48.868;10.730;2023-02-17T10:39:46;7.17;;;4.37;;
25982;SDS011;13773;48.868;10.730;2023-02-17T10:42:29;6.60;;;4.00;;
25982;SDS011;13773;48.868;10.730;2023-02-17T10:45:02;4.73;;;3.87;;
25982;SDS011;13773;48.868;10.730;2023-02-17T10:47:37;6.20;;;3.27;;
25982;SDS011;13773;48.868;10.730;2023-02-17T10:50:05;2.83;;;2.40;;
25982;SDS011;13773;48.868;10.730;2023-02-17T10:52:39;3.47;;;2.33;;
25982;SDS011;13773;48.868;10.730;2023-02-17T10:57:53;3.90;;;2.53;;
25982;SDS011;13773;48.868;10.730;2023-02-17T11:00:29;3.70;;;2.67;;
25982;SDS011;13773;48.868;10.730;2023-02-17T11:02:55;5.30;;;2.30;;
25982;SDS011;13773;48.868;10.730;2023-02-17T11:07:55;4.17;;;1.93;;
25982;SDS011;13773;48.868;10.730;2023-02-17T11:13:00;2.80;;;1.80;;
25982;SDS011;13773;48.868;10.730;2023-02-17T11:15:29;1.50;;;1.40;;
25982;SDS011;13773;48.868;10.730;2023-02-17T11:18:00;2.87;;;1.70;;
25982;SDS011;13773;48.868;10.730;2023-02-17T11:20:33;2.37;;;1.73;;
25982;SDS011;13773;48.868;10.730;2023-02-17T11:23:04;3.53;;;2.37;;
25982;SDS011;13773;48.868;10.730;2023-02-17T11:25:54;3.23;;;2.37;;
25982;SDS011;13773;48.868;10.730;2023-02-17T11:28:40;3.37;;;1.83;;
25982;SDS011;13773;48.868;10.730;2023-02-17T11:31:06;3.27;;;1.70;;
25982;SDS011;13773;48.868;10.730;2023-02-17T11:33:37;3.17;;;1.70;;
25982;SDS011;13773;48.868;10.730;2023-02-17T11:36:04;1.97;;;1.60;;
25982;SDS011;13773;48.868;10.730;2023-02-17T11:41:04;2.87;;;1.60;;
25982;SDS011;13773;48.868;10.730;2023-02-17T11:43:32;4.03;;;1.77;;
25982;SDS011;13773;48.868;10.730;2023-02-17T11:51:26;2.30;;;1.60;;
25982;SDS011;13773;48.868;10.730;2023-02-17T11:56:35;4.40;;;1.60;;
25982;SDS011;13773;48.868;10.730;2023-02-17T12:04:33;2.13;;;1.60;;
25982;SDS011;13773;48.868;10.730;2023-02-17T12:10:02;1.73;;;1.60;;
25982;SDS011;13773;48.868;10.730;2023-02-17T12:24:17;7.80;;;4.63;;
25982;SDS011;13773;48.868;10.730;2023-02-17T12:27:21;3.63;;;1.60;;
25982;SDS011;13773;48.868;10.730;2023-02-17T12:35:18;3.30;;;2.20;;
25982;SDS011;13773;48.868;10.730;2023-02-17T12:37:55;1.90;;;1.43;;
25982;SDS011;13773;48.868;10.730;2023-02-17T12:40:37;2.33;;;2.03;;
25982;SDS011;13773;48.868;10.730;2023-02-17T12:43:33;4.47;;;2.57;;
25982;SDS011;13773;48.868;10.730;2023-02-17T12:46:04;2.50;;;2.30;;
25982;SDS011;13773;48.868;10.730;2023-02-17T12:48:39;4.73;;;2.90;;
25982;SDS011;13773;48.868;10.730;2023-02-17T12:51:14;4.33;;;3.00;;
25982;SDS011;13773;48.868;10.730;2023-02-17T12:56:42;9.17;;;5.83;;
25982;SDS011;13773;48.868;10.730;2023-02-17T13:01:46;5.30;;;3.73;;
25982;SDS011;13773;48.868;10.730;2023-02-17T13:04:16;5.03;;;4.03;;
25982;SDS011;13773;48.868;10.730;2023-02-17T13:06:45;3.97;;;3.47;;
25982;SDS011;13773;48.868;10.730;2023-02-17T13:12:06;3.60;;;3.10;;
25982;SDS011;13773;48.868;10.730;2023-02-17T13:14:41;3.37;;;3.00;;
25982;SDS011;13773;48.868;10.730;2023-02-17T13:17:20;5.37;;;2.90;;
25982;SDS011;13773;48.868;10.730;2023-02-17T13:22:35;3.30;;;2.33;;
25982;SDS011;13773;48.868;10.730;2023-02-17T13:25:02;3.83;;;2.70;;
25982;SDS011;13773;48.868;10.730;2023-02-17T13:32:41;4.40;;;2.13;;
25982;SDS011;13773;48.868;10.730;2023-02-17T13:35:27;3.73;;;2.00;;
25982;SDS011;13773;48.868;10.730;2023-02-17T13:37:59;4.20;;;2.80;;
25982;SDS011;13773;48.868;10.730;2023-02-17T13:42:55;3.73;;;3.00;;
25982;SDS011;13773;48.868;10.730;2023-02-17T13:47:51;2.67;;;2.27;;
25982;SDS011;13773;48.868;10.730;2023-02-17T13:50:30;3.63;;;2.23;;
25982;SDS011;13773;48.868;10.730;2023-02-17T13:52:59;2.47;;;1.77;;
25982;SDS011;13773;48.868;10.730;2023-02-17T13:55:26;5.00;;;3.10;;
25982;SDS011;13773;48.868;10.730;2023-02-17T13:57:56;5.33;;;3.50;;
25982;SDS011;13773;48.868;10.730;2023-02-17T14:05:27;2.33;;;1.83;;
25982;SDS011;13773;48.868;10.730;2023-02-17T14:08:12;3.07;;;2.10;;
25982;SDS011;13773;48.868;10.730;2023-02-17T14:10:38;3.00;;;2.17;;
25982;SDS011;13773;48.868;10.730;2023-02-17T14:13:07;3.30;;;1.70;;
25982;SDS011;13773;48.868;10.730;2023-02-17T14:15:34;3.70;;;2.20;;
25982;SDS011;13773;48.868;10.730;2023-02-17T14:18:10;3.50;;;2.17;;
25982;SDS011;13773;48.868;10.730;2023-02-17T14:20:39;2.63;;;2.10;;
25982;SDS011;13773;48.868;10.730;2023-02-17T14:23:09;2.03;;;1.83;;
25982;SDS011;13773;48.868;10.730;2023-02-17T14:25:38;2.67;;;1.50;;
25982;SDS011;13773;48.868;10.730;2023-02-17T14:28:16;2.27;;;1.70;;
25982;SDS011;13773;48.868;10.730;2023-02-17T14:30:43;2.70;;;1.73;;
25982;SDS011;13773;48.868;10.730;2023-02-17T14:38:26;3.00;;;1.93;;
25982;SDS011;13773;48.868;10.730;2023-02-17T14:41:01;2.17;;;1.70;;
25982;SDS011;13773;48.868;10.730;2023-02-17T14:43:28;1.60;;;1.40;;
25982;SDS011;13773;48.868;10.730;2023-02-17T14:45:54;3.93;;;2.03;;
25982;SDS011;13773;48.868;10.730;2023-02-17T14:48:19;2.33;;;2.13;;
25982;SDS011;13773;48.868;10.730;2023-02-17T14:50:45;2.20;;;1.70;;
25982;SDS011;13773;48.868;10.730;2023-02-17T14:58:38;3.17;;;1.77;;
25982;SDS011;13773;48.868;10.730;2023-02-17T15:01:03;3.60;;;2.50;;
25982;SDS011;13773;48.868;10.730;2023-02-17T15:03:30;2.73;;;1.97;;
25982;SDS011;13773;48.868;10.730;2023-02-17T15:05:56;3.90;;;2.90;;
25982;SDS011;13773;48.868;10.730;2023-02-17T15:08:32;4.60;;;2.80;;
25982;SDS011;13773;48.868;10.730;2023-02-17T15:10:59;4.10;;;2.77;;
25982;SDS011;13773;48.868;10.730;2023-02-17T15:13:25;3.53;;;2.13;;
25982;SDS011;13773;48.868;10.730;2023-02-17T15:15:51;3.97;;;2.00;;
25982;SDS011;13773;48.868;10.730;2023-02-17T15:18:17;1.77;;;1.47;;
25982;SDS011;13773;48.868;10.730;2023-02-17T15:20:45;1.73;;;1.47;;
25982;SDS011;13773;48.868;10.730;2023-02-17T15:23:17;1.60;;;1.50;;
25982;SDS011;13773;48.868;10.730;2023-02-17T15:25:46;2.37;;;1.90;;
25982;SDS011;13773;48.868;10.730;2023-02-17T15:28:13;3.57;;;1.47;;
25982;SDS011;13773;48.868;10.730;2023-02-17T15:30:40;1.30;;;1.10;;
25982;SDS011;13773;48.868;10.730;2023-02-17T15:33:10;1.47;;;1.37;;
25982;SDS011;13773;48.868;10.730;2023-02-17T15:35:37;1.50;;;1.23;;
25982;SDS011;13773;48.868;10.730;2023-02-17T15:38:04;1.70;;;1.30;;
25982;SDS011;13773;48.868;10.730;2023-02-17T15:40:30;3.80;;;1.20;;
25982;SDS011;13773;48.868;10.730;2023-02-17T15:42:58;2.93;;;1.83;;
25982;SDS011;13773;48.868;10.730;2023-02-17T15:45:30;2.03;;;1.63;;
25982;SDS011;13773;48.868;10.730;2023-02-17T15:50:25;1.60;;;1.20;;
25982;SDS011;13773;48.868;10.730;2023-02-17T15:52:51;1.43;;;1.33;;
25982;SDS011;13773;48.868;10.730;2023-02-17T15:55:17;1.93;;;1.33;;
25982;SDS011;13773;48.868;10.730;2023-02-17T15:57:50;1.43;;;1.20;;
25982;SDS011;13773;48.868;10.730;2023-02-17T16:00:25;2.07;;;1.87;;
25982;SDS011;13773;48.868;10.730;2023-02-17T16:02:53;1.73;;;1.20;;
25982;SDS011;13773;48.868;10.730;2023-02-17T16:05:20;1.47;;;1.37;;
25982;SDS011;13773;48.868;10.730;2023-02-17T16:07:47;1.87;;;1.10;;
25982;SDS011;13773;48.868;10.730;2023-02-17T16:10:15;0.80;;;0.80;;
25982;SDS011;13773;48.868;10.730;2023-02-17T16:12:42;3.30;;;2.10;;
25982;SDS011;13773;48.868;10.730;2023-02-17T16:15:10;1.60;;;1.30;;
25982;SDS011;13773;48.868;10.730;2023-02-17T16:17:39;1.20;;;1.00;;
25982;SDS011;13773;48.868;10.730;2023-02-17T16:20:09;1.77;;;1.37;;
25982;SDS011;13773;48.868;10.730;2023-02-17T16:22:43;1.67;;;0.97;;
25982;SDS011;13773;48.868;10.730;2023-02-17T16:25:09;2.57;;;1.30;;
25982;SDS011;13773;48.868;10.730;2023-02-17T16:27:35;1.93;;;1.60;;
25982;SDS011;13773;48.868;10.730;2023-02-17T16:30:06;2.20;;;2.00;;
25982;SDS011;13773;48.868;10.730;2023-02-17T16:32:40;4.20;;;3.30;;
25982;SDS011;13773;48.868;10.730;2023-02-17T16:35:05;1.87;;;1.47;;
25982;SDS011;13773;48.868;10.730;2023-02-17T16:37:31;1.93;;;1.10;;
25982;SDS011;13773;48.868;10.730;2023-02-17T16:39:57;1.53;;;1.20;;
25982;SDS011;13773;48.868;10.730;2023-02-17T16:42:23;2.70;;;2.50;;